createdAt,value
2018-07-08T00:01:39.474Z,66.73
2018-07-08T00:04:08.770Z,66.95
2018-07-08T00:06:38.138Z,67.11
2018-07-08T00:09:08.263Z,67.19
2018-07-08T00:11:37.658Z,67.35
2018-07-08T00:14:07.053Z,68.12
2018-07-08T00:16:36.399Z,67.20
2018-07-08T00:19:05.743Z,67.61
2018-07-08T00:21:35.070Z,67.56
2018-07-08T00:24:04.454Z,67.53
2018-07-08T00:26:34.785Z,67.33
2018-07-08T00:29:04.529Z,67.07
2018-07-08T00:31:33.914Z,67.08
2018-07-08T00:34:03.296Z,67.95
2018-07-08T00:36:33.012Z,67.78
2018-07-08T00:39:02.977Z,67.78
2018-07-08T00:41:32.610Z,67.91
2018-07-08T00:44:02.010Z,67.40
2018-07-08T00:46:31.383Z,67.64
2018-07-08T00:49:00.717Z,68.02
2018-07-08T00:51:30.098Z,68.21
2018-07-08T00:53:59.763Z,68.35
2018-07-08T00:56:29.102Z,68.02
2018-07-08T00:58:58.627Z,68.78
2018-07-08T01:01:28.065Z,68.09
2018-07-08T01:03:57.472Z,68.43
2018-07-08T01:06:26.843Z,68.71
2018-07-08T01:08:56.349Z,68.90
2018-07-08T01:11:25.735Z,68.71
2018-07-08T01:13:55.091Z,68.61
2018-07-08T01:16:24.456Z,69.49
2018-07-08T01:18:54.139Z,69.36
2018-07-08T01:21:23.502Z,69.33
2018-07-08T01:23:52.870Z,69.38
2018-07-08T01:26:22.217Z,70.38
2018-07-08T01:28:51.561Z,70.08
2018-07-08T01:31:21.493Z,70.32
2018-07-08T01:33:50.841Z,69.79
2018-07-08T01:36:20.497Z,70.05
2018-07-08T01:38:49.809Z,69.96
2018-07-08T01:41:19.165Z,69.91
2018-07-08T01:43:48.545Z,70.19
2018-07-08T01:46:17.965Z,70.46
2018-07-08T01:48:47.323Z,69.66
2018-07-08T01:51:16.757Z,69.86
2018-07-08T01:53:46.134Z,69.95
2018-07-08T01:56:15.553Z,69.51
2018-07-08T01:58:44.946Z,70.02
2018-07-08T02:01:14.329Z,70.47
2018-07-08T02:03:43.758Z,69.55
2018-07-08T02:06:13.157Z,70.08
2018-07-08T02:08:42.533Z,70.05
2018-07-08T02:11:11.866Z,70.69
2018-07-08T02:13:41.320Z,70.49
2018-07-08T02:16:10.683Z,70.29
2018-07-08T02:18:40.110Z,70.51
2018-07-08T02:21:09.525Z,69.81
2018-07-08T02:23:38.918Z,71.04
2018-07-08T02:26:08.738Z,71.18
2018-07-08T02:28:38.133Z,71.64
2018-07-08T02:31:08.597Z,71.36
2018-07-08T02:33:37.947Z,71.23
2018-07-08T02:36:07.287Z,70.65
2018-07-08T02:38:36.766Z,70.85
2018-07-08T02:41:06.314Z,70.70
2018-07-08T02:43:35.790Z,70.68
2018-07-08T02:46:05.227Z,70.58
2018-07-08T02:48:34.580Z,70.84
2018-07-08T02:51:03.950Z,71.09
2018-07-08T02:53:33.338Z,71.36
2018-07-08T02:56:02.715Z,70.97
2018-07-08T02:58:32.074Z,70.62
2018-07-08T03:01:01.396Z,70.68
2018-07-08T03:03:30.765Z,71.74
2018-07-08T03:06:00.142Z,71.48
2018-07-08T03:08:29.630Z,71.93
2018-07-08T03:10:59.299Z,71.51
2018-07-08T03:13:28.747Z,71.29
2018-07-08T03:15:58.296Z,71.52
2018-07-08T03:18:28.309Z,71.93
2018-07-08T03:20:57.673Z,71.75
2018-07-08T03:23:27.033Z,71.22
2018-07-08T03:25:56.425Z,71.68
2018-07-08T03:28:25.811Z,71.54
2018-07-08T03:30:55.159Z,71.34
2018-07-08T03:33:24.584Z,72.16
2018-07-08T03:35:53.895Z,72.52
2018-07-08T03:38:23.571Z,71.36
2018-07-08T03:40:53.188Z,71.95
2018-07-08T03:43:22.558Z,71.75
2018-07-08T03:45:51.949Z,71.53
2018-07-08T03:48:21.288Z,71.57
2018-07-08T03:50:50.504Z,71.36
2018-07-08T03:53:19.841Z,71.11
2018-07-08T03:55:49.149Z,71.50
2018-07-08T03:58:18.510Z,72.00
2018-07-08T04:00:47.950Z,71.81
2018-07-08T04:03:17.369Z,72.08
2018-07-08T04:05:46.695Z,72.17
2018-07-08T04:08:17.130Z,72.13
2018-07-08T04:10:46.493Z,71.57
2018-07-08T04:13:16.944Z,72.14
2018-07-08T04:15:47.273Z,71.94
2018-07-08T04:18:16.677Z,71.94
2018-07-08T04:20:46.041Z,72.04
2018-07-08T04:23:15.401Z,71.26
2018-07-08T04:25:44.748Z,71.29
2018-07-08T04:28:14.115Z,71.22
2018-07-08T04:30:43.485Z,70.52
2018-07-08T04:33:12.842Z,70.80
2018-07-08T04:35:42.186Z,71.43
2018-07-08T04:38:11.690Z,71.32
2018-07-08T04:40:41.014Z,71.13
2018-07-08T04:43:11.261Z,71.33
2018-07-08T04:45:40.576Z,71.40
2018-07-08T04:48:09.916Z,71.05
2018-07-08T04:50:39.261Z,71.54
2018-07-08T04:53:08.628Z,71.55
2018-07-08T04:55:37.999Z,71.63
2018-07-08T04:58:07.328Z,71.06
2018-07-08T05:00:36.921Z,70.85
2018-07-08T05:03:06.438Z,71.58
2018-07-08T05:05:35.856Z,70.71
2018-07-08T05:08:05.193Z,70.29
2018-07-08T05:10:34.605Z,70.41
2018-07-08T05:13:03.981Z,70.92
2018-07-08T05:15:33.339Z,70.43
2018-07-08T05:18:02.914Z,70.57
2018-07-08T05:20:32.324Z,70.46
2018-07-08T05:23:01.677Z,69.56
2018-07-08T05:25:31.072Z,69.90
2018-07-08T05:28:00.502Z,69.16
2018-07-08T05:30:29.981Z,68.88
2018-07-08T05:32:59.563Z,68.25
2018-07-08T05:35:29.015Z,68.31
2018-07-08T05:37:58.441Z,68.50
2018-07-08T05:40:27.826Z,68.52
2018-07-08T05:42:57.200Z,68.15
2018-07-08T05:45:26.605Z,67.79
2018-07-08T05:47:55.962Z,67.44
2018-07-08T05:50:25.399Z,67.21
2018-07-08T05:52:55.178Z,66.92
2018-07-08T05:55:24.561Z,66.10
2018-07-08T05:57:53.919Z,65.81
2018-07-08T06:00:24.243Z,66.06
2018-07-08T06:02:53.709Z,66.50
2018-07-08T06:05:23.118Z,65.49
2018-07-08T06:07:52.477Z,65.86
2018-07-08T06:10:21.946Z,65.56
2018-07-08T06:12:51.265Z,65.33
2018-07-08T06:15:20.725Z,65.94
2018-07-08T06:17:50.050Z,65.34
2018-07-08T06:20:19.402Z,66.40
2018-07-08T06:22:48.830Z,64.67
2018-07-08T06:25:18.181Z,63.90
2018-07-08T06:27:47.606Z,63.37
2018-07-08T06:30:17.002Z,63.68
2018-07-08T06:32:46.455Z,62.84
2018-07-08T06:35:15.887Z,63.43
2018-07-08T06:37:45.268Z,63.46
2018-07-08T06:40:14.684Z,63.04
2018-07-08T06:42:43.782Z,62.66
2018-07-08T06:45:13.223Z,62.13
2018-07-08T06:47:42.813Z,62.39
2018-07-08T06:50:12.234Z,62.73
2018-07-08T06:52:41.601Z,62.52
2018-07-08T06:55:10.972Z,62.28
2018-07-08T06:57:40.350Z,62.88
2018-07-08T07:00:10.121Z,61.99
2018-07-08T07:02:39.641Z,62.53
2018-07-08T07:05:09.022Z,63.22
2018-07-08T07:07:38.393Z,63.68
2018-07-08T07:10:08.145Z,61.54
2018-07-08T07:12:37.577Z,61.48
2018-07-08T07:15:06.951Z,62.10
2018-07-08T07:17:36.308Z,60.71
2018-07-08T07:20:05.738Z,61.57
2018-07-08T07:22:35.121Z,62.08
2018-07-08T07:25:04.570Z,61.26
2018-07-08T07:27:33.950Z,60.34
2018-07-08T07:30:03.373Z,61.10
2018-07-08T07:32:32.769Z,61.04
2018-07-08T07:35:02.455Z,60.86
2018-07-08T07:37:31.803Z,61.42
2018-07-08T07:40:01.355Z,61.81
2018-07-08T07:42:30.980Z,62.57
2018-07-08T07:45:00.501Z,60.73
2018-07-08T07:47:29.936Z,60.52
2018-07-08T07:49:59.469Z,60.82
2018-07-08T07:52:28.927Z,60.29
2018-07-08T07:54:58.718Z,60.82
2018-07-08T07:57:28.173Z,61.17
2018-07-08T07:59:57.618Z,61.12
2018-07-08T08:02:27.022Z,59.21
2018-07-08T08:04:56.394Z,59.34
2018-07-08T08:07:25.762Z,60.38
2018-07-08T08:09:55.099Z,59.41
2018-07-08T08:12:24.496Z,59.41
2018-07-08T08:14:53.894Z,59.34
2018-07-08T08:17:23.313Z,58.62
2018-07-08T08:19:52.726Z,59.91
2018-07-08T08:22:22.104Z,58.12
2018-07-08T08:24:51.661Z,57.52
2018-07-08T08:27:21.021Z,58.93
2018-07-08T08:32:18.976Z,57.58
2018-07-08T08:34:53.238Z,56.93
2018-07-08T08:37:24.788Z,58.39
2018-07-08T08:39:54.720Z,56.77
2018-07-08T08:42:24.227Z,55.21
2018-07-08T08:44:54.605Z,56.62
2018-07-08T08:47:24.557Z,55.63
2018-07-08T08:49:54.401Z,56.12
2018-07-08T08:52:24.782Z,56.89
2018-07-08T08:54:55.196Z,54.40
2018-07-08T08:57:24.588Z,53.88
2018-07-08T08:59:54.303Z,54.92
2018-07-08T09:02:23.685Z,54.23
2018-07-08T09:04:53.072Z,52.41
2018-07-08T09:07:22.981Z,52.25
2018-07-08T09:09:52.403Z,51.68
2018-07-08T09:12:21.910Z,51.42
2018-07-08T09:14:51.246Z,51.90
2018-07-08T09:17:20.659Z,50.49
2018-07-08T09:19:50.072Z,51.54
2018-07-08T09:22:19.581Z,51.80
2018-07-08T09:24:49.039Z,49.50
2018-07-08T09:27:18.405Z,49.77
2018-07-08T09:29:47.753Z,50.34
2018-07-08T09:32:17.125Z,49.36
2018-07-08T09:34:46.453Z,50.11
2018-07-08T09:37:15.882Z,50.98
2018-07-08T09:39:45.261Z,48.80
2018-07-08T09:42:14.596Z,48.17
2018-07-08T09:44:43.943Z,49.69
2018-07-08T09:47:13.318Z,49.47
2018-07-08T09:49:42.698Z,48.51
2018-07-08T09:52:12.039Z,48.80
2018-07-08T09:54:41.477Z,48.66
2018-07-08T09:57:10.863Z,50.60
2018-07-08T09:59:40.240Z,47.45
2018-07-08T10:02:09.670Z,46.95
2018-07-08T10:04:39.135Z,45.58
2018-07-08T10:07:08.432Z,45.24
2018-07-08T10:09:37.778Z,44.58
2018-07-08T10:12:07.407Z,45.05
2018-07-08T10:14:36.959Z,47.72
2018-07-08T10:17:06.391Z,46.25
2018-07-08T10:19:35.759Z,47.32
2018-07-08T10:22:05.110Z,43.02
2018-07-08T10:24:34.413Z,45.20
2018-07-08T10:28:14.282Z,44.13
2018-07-08T10:30:43.963Z,45.01
2018-07-08T10:33:13.301Z,45.33
2018-07-08T10:36:03.516Z,44.10
2018-07-08T10:38:33.913Z,41.07
2018-07-08T10:41:03.241Z,42.54
2018-07-08T10:43:32.577Z,44.61
2018-07-08T10:46:01.917Z,44.39
2018-07-08T10:48:31.279Z,41.71
2018-07-08T10:51:00.595Z,41.66
2018-07-08T10:53:30.111Z,40.36
2018-07-08T10:55:59.590Z,42.96
2018-07-08T10:58:28.998Z,43.14
2018-07-08T11:00:58.431Z,42.81
2018-07-08T11:03:27.845Z,43.82
2018-07-08T11:05:57.341Z,42.24
2018-07-08T11:08:27.642Z,42.77
2018-07-08T11:10:57.053Z,45.03
2018-07-08T11:13:26.409Z,46.52
2018-07-08T11:15:55.569Z,46.62
2018-07-08T11:18:24.949Z,41.97
2018-07-08T11:20:54.347Z,42.16
2018-07-08T11:23:23.706Z,42.79
2018-07-08T11:25:53.102Z,43.38
2018-07-08T11:28:22.493Z,45.42
2018-07-08T11:30:51.894Z,42.80
2018-07-08T11:33:21.239Z,42.75
2018-07-08T11:35:50.653Z,42.24
2018-07-08T11:38:20.029Z,44.20
2018-07-08T11:40:49.461Z,41.79
2018-07-08T11:43:18.819Z,42.25
2018-07-08T11:45:48.289Z,43.25
2018-07-08T11:48:17.653Z,41.53
2018-07-08T11:50:46.969Z,43.33
2018-07-08T11:53:16.330Z,43.25
2018-07-08T11:55:45.673Z,43.02
2018-07-08T11:58:15.035Z,42.79
2018-07-08T12:00:44.377Z,43.94
2018-07-08T12:03:13.730Z,44.75
2018-07-08T12:05:43.199Z,42.26
2018-07-08T12:08:12.522Z,42.51
2018-07-08T12:10:41.893Z,45.14
2018-07-08T12:13:11.332Z,43.97
2018-07-08T12:15:40.699Z,43.88
2018-07-08T12:18:10.059Z,43.48
2018-07-08T12:20:39.845Z,44.79
2018-07-08T12:23:09.188Z,44.65
2018-07-08T12:25:38.492Z,43.81
2018-07-08T12:28:07.860Z,42.67
2018-07-08T12:30:37.372Z,43.03
2018-07-08T12:33:07.424Z,43.22
2018-07-08T12:35:36.815Z,42.79
2018-07-08T12:38:06.324Z,42.50
2018-07-08T12:40:35.727Z,43.11
2018-07-08T12:43:05.150Z,43.09
2018-07-08T12:45:34.671Z,42.47
2018-07-08T12:48:04.031Z,43.36
2018-07-08T12:50:33.549Z,42.22
2018-07-08T12:53:02.949Z,43.12
2018-07-08T12:55:32.372Z,42.88
2018-07-08T12:58:01.766Z,44.57
2018-07-08T13:00:31.265Z,42.89
2018-07-08T13:03:00.618Z,41.47
2018-07-08T13:05:29.998Z,40.53
2018-07-08T13:07:59.423Z,42.41
2018-07-08T13:10:29.063Z,40.66
2018-07-08T13:12:58.862Z,41.03
2018-07-08T13:15:28.486Z,39.29
2018-07-08T13:17:57.873Z,39.91
2018-07-08T13:20:27.301Z,41.82
2018-07-08T13:22:56.689Z,40.10
2018-07-08T13:25:25.794Z,40.58
2018-07-08T13:27:55.188Z,40.82
2018-07-08T13:30:24.559Z,41.71
2018-07-08T13:32:53.905Z,42.34
2018-07-08T13:35:23.281Z,41.82
2018-07-08T13:37:52.637Z,42.52
2018-07-08T13:40:21.998Z,43.13
2018-07-08T13:42:51.373Z,41.84
2018-07-08T13:45:20.695Z,42.64
2018-07-08T13:47:50.017Z,42.42
2018-07-08T13:50:19.377Z,41.81
2018-07-08T13:52:48.741Z,42.76
2018-07-08T13:55:18.095Z,43.54
2018-07-08T13:57:47.466Z,39.42
2018-07-08T14:00:16.806Z,40.95
2018-07-08T14:02:46.246Z,39.41
2018-07-08T14:05:15.636Z,39.41
2018-07-08T14:07:45.476Z,43.57
2018-07-08T14:10:14.895Z,40.53
2018-07-08T14:12:44.368Z,40.03
2018-07-08T14:15:13.736Z,41.57
2018-07-08T14:17:43.120Z,40.76
2018-07-08T14:20:12.526Z,41.82
2018-07-08T14:22:41.864Z,40.56
2018-07-08T14:25:11.347Z,42.38
2018-07-08T14:27:40.744Z,40.56
2018-07-08T14:30:10.282Z,42.66
2018-07-08T14:32:39.649Z,39.78
2018-07-08T14:35:09.258Z,40.77
2018-07-08T14:37:38.626Z,40.45
2018-07-08T14:40:07.999Z,40.58
2018-07-08T14:42:50.706Z,41.01
2018-07-08T14:45:20.081Z,40.49
2018-07-08T14:47:49.811Z,40.81
2018-07-08T14:50:20.141Z,40.83
2018-07-08T14:52:49.538Z,43.20
2018-07-08T14:55:18.867Z,40.09
2018-07-08T14:57:48.245Z,40.41
2018-07-08T15:00:17.597Z,40.91
2018-07-08T15:02:46.940Z,41.38
2018-07-08T15:05:16.450Z,40.41
2018-07-08T15:07:45.852Z,40.30
2018-07-08T15:10:15.262Z,41.88
2018-07-08T15:12:44.727Z,40.33
2018-07-08T15:15:14.275Z,41.71
2018-07-08T15:17:43.646Z,41.78
2018-07-08T15:20:13.005Z,41.68
2018-07-08T15:22:42.359Z,40.16
2018-07-08T15:25:11.673Z,40.47
2018-07-08T15:27:41.060Z,41.80
2018-07-08T15:30:10.390Z,41.71
2018-07-08T15:32:40.452Z,42.16
2018-07-08T15:35:09.899Z,39.96
2018-07-08T15:37:40.357Z,42.32
2018-07-08T15:40:10.108Z,41.46
2018-07-08T15:42:39.508Z,41.65
2018-07-08T15:45:08.994Z,40.90
2018-07-08T15:47:38.341Z,41.07
2018-07-08T15:50:07.821Z,41.50
2018-07-08T15:52:37.229Z,42.15
2018-07-08T15:55:06.581Z,42.26
2018-07-08T15:57:35.931Z,42.13
2018-07-08T16:00:05.701Z,42.42
2018-07-08T16:02:35.139Z,43.37
2018-07-08T16:05:04.654Z,40.76
2018-07-08T16:07:34.062Z,42.05
2018-07-08T16:10:03.539Z,40.74
2018-07-08T16:12:33.018Z,41.40
2018-07-08T16:15:02.515Z,40.57
2018-07-08T16:17:32.213Z,41.78
2018-07-08T16:20:01.949Z,42.07
2018-07-08T16:22:31.376Z,41.52
2018-07-08T16:25:00.762Z,40.74
2018-07-08T16:27:30.224Z,40.78
2018-07-08T16:29:59.663Z,40.63
2018-07-08T16:32:29.947Z,41.19
2018-07-08T16:34:59.754Z,42.37
2018-07-08T16:37:30.659Z,42.90
2018-07-08T16:40:02.223Z,43.00
2018-07-08T16:42:32.490Z,42.12
2018-07-08T16:45:05.862Z,42.77
2018-07-08T16:47:35.471Z,42.45
2018-07-08T16:50:06.085Z,41.82
2018-07-08T16:52:35.629Z,40.24
2018-07-08T16:55:05.158Z,40.95
2018-07-08T16:57:34.884Z,39.46
2018-07-08T17:00:04.933Z,40.98
2018-07-08T17:02:34.454Z,40.88
2018-07-08T17:05:04.185Z,41.19
2018-07-08T17:07:33.639Z,41.74
2018-07-08T17:10:03.297Z,42.02
2018-07-08T17:12:32.836Z,41.07
2018-07-08T17:15:02.296Z,40.76
2018-07-08T17:17:32.576Z,42.03
2018-07-08T17:20:02.173Z,41.78
2018-07-08T17:22:31.822Z,42.55
2018-07-08T17:25:01.387Z,42.42
2018-07-08T17:27:31.022Z,41.65
2018-07-08T17:30:00.667Z,41.76
2018-07-08T17:32:30.318Z,42.59
2018-07-08T17:34:59.816Z,41.74
2018-07-08T17:37:29.460Z,41.40
2018-07-08T17:39:59.872Z,42.39
2018-07-08T17:42:29.388Z,41.07
2018-07-08T17:44:58.785Z,40.80
2018-07-08T17:47:28.122Z,41.89
2018-07-08T17:49:57.870Z,40.53
2018-07-08T17:52:27.463Z,40.06
2018-07-08T17:54:56.959Z,41.23
2018-07-08T17:57:26.338Z,42.26
2018-07-08T17:59:55.856Z,41.40
2018-07-08T18:02:25.364Z,43.04
2018-07-08T18:04:54.928Z,41.46
2018-07-08T18:07:24.418Z,41.73
2018-07-08T18:09:53.890Z,41.55
2018-07-08T18:12:23.399Z,41.22
2018-07-08T18:14:53.851Z,40.94
2018-07-08T18:17:23.218Z,41.04
2018-07-08T18:19:52.762Z,40.61
2018-07-08T18:22:22.227Z,39.62
2018-07-08T18:24:51.660Z,41.15
2018-07-08T18:27:21.071Z,41.06
2018-07-08T18:29:50.455Z,40.88
2018-07-08T18:32:20.059Z,42.32
2018-07-08T18:34:49.444Z,42.46
2018-07-08T18:37:18.916Z,41.79
2018-07-08T18:39:50.402Z,42.09
2018-07-08T18:42:19.926Z,41.88
2018-07-08T18:44:49.342Z,42.42
2018-07-08T18:47:18.495Z,42.33
2018-07-08T18:49:47.924Z,42.63
2018-07-08T18:52:17.644Z,42.44
2018-07-08T18:54:47.199Z,43.35
2018-07-08T18:57:16.719Z,44.23
2018-07-08T19:02:46.373Z,46.23
2018-07-08T19:05:15.835Z,46.52
2018-07-08T19:07:45.269Z,47.46
2018-07-08T19:10:14.678Z,45.09
2018-07-08T19:12:44.184Z,46.63
2018-07-08T19:15:13.671Z,48.55
2018-07-08T19:17:43.192Z,48.78
2018-07-08T19:20:12.588Z,50.04
2018-07-08T19:22:41.965Z,48.70
2018-07-08T19:25:11.500Z,49.81
2018-07-08T19:27:40.996Z,48.89
2018-07-08T19:30:11.436Z,49.07
2018-07-08T19:32:41.164Z,49.80
2018-07-08T19:37:39.019Z,51.42
2018-07-08T19:40:08.437Z,50.38
2018-07-08T19:42:37.943Z,50.10
2018-07-08T19:45:07.385Z,50.26
2018-07-08T19:47:36.908Z,50.39
2018-07-08T19:50:06.328Z,50.96
2018-07-08T19:52:35.905Z,50.85
2018-07-08T19:55:05.437Z,52.72
2018-07-08T19:57:34.999Z,51.34
2018-07-08T20:00:04.771Z,52.58
2018-07-08T20:02:35.242Z,52.27
2018-07-08T20:05:04.748Z,52.53
2018-07-08T20:07:34.296Z,52.79
2018-07-08T20:10:03.840Z,53.56
2018-07-08T20:12:33.343Z,52.50
2018-07-08T20:15:03.073Z,53.08
2018-07-08T20:17:34.298Z,53.04
2018-07-08T20:20:04.006Z,52.74
2018-07-08T20:22:34.833Z,53.45
2018-07-08T20:25:04.425Z,53.91
2018-07-08T20:27:33.871Z,53.88
2018-07-08T20:30:03.470Z,54.11
2018-07-08T20:32:32.979Z,54.44
2018-07-08T20:35:02.262Z,53.63
2018-07-08T20:37:31.759Z,54.79
2018-07-08T20:40:01.360Z,54.95
2018-07-08T20:42:31.246Z,55.21
2018-07-08T20:45:00.717Z,54.56
2018-07-08T20:47:30.614Z,55.07
2018-07-08T20:50:00.407Z,55.63
2018-07-08T20:52:30.251Z,54.77
2018-07-08T20:55:01.505Z,54.41
2018-07-08T20:57:31.090Z,55.60
2018-07-08T21:00:00.765Z,54.68
2018-07-08T21:02:30.821Z,54.90
2018-07-08T21:05:00.344Z,54.48
2018-07-08T21:07:30.143Z,54.46
2018-07-08T21:09:59.756Z,55.69
2018-07-08T21:12:29.353Z,55.77
2018-07-08T21:14:58.832Z,54.31
2018-07-08T21:17:28.405Z,56.00
2018-07-08T21:19:58.121Z,55.36
2018-07-08T21:22:27.633Z,55.25
2018-07-08T21:24:57.144Z,55.99
2018-07-08T21:27:26.571Z,55.87
2018-07-08T21:29:56.512Z,55.99
2018-07-08T21:32:26.163Z,55.35
2018-07-08T21:34:56.467Z,55.82
2018-07-08T21:37:27.975Z,56.27
2018-07-08T21:39:57.608Z,55.56
2018-07-08T21:42:27.380Z,54.87
2018-07-08T21:44:56.936Z,55.11
2018-07-08T21:47:26.496Z,56.48
2018-07-08T21:49:57.359Z,55.84
2018-07-08T21:52:27.214Z,56.42
2018-07-08T21:54:56.718Z,55.61
2018-07-08T21:57:26.468Z,56.54
2018-07-08T21:59:55.789Z,56.78
2018-07-08T22:02:25.280Z,56.07
2018-07-08T22:04:54.714Z,57.00
2018-07-08T22:07:25.472Z,57.37
2018-07-08T22:09:54.802Z,55.95
2018-07-08T22:12:24.757Z,57.91
2018-07-08T22:14:54.271Z,57.17
2018-07-08T22:17:23.663Z,57.51
2018-07-08T22:19:53.005Z,57.39
2018-07-08T22:22:22.362Z,57.82
2018-07-08T22:24:52.042Z,57.86
2018-07-08T22:27:21.478Z,57.38
2018-07-08T22:29:50.844Z,57.33
2018-07-08T22:32:20.030Z,57.84
2018-07-08T22:34:49.437Z,57.88
2018-07-08T22:37:18.851Z,58.31
2018-07-08T22:39:48.590Z,58.35
2018-07-08T22:42:17.989Z,56.87
2018-07-08T22:44:47.689Z,57.64
2018-07-08T22:47:17.192Z,57.87
2018-07-08T22:49:46.696Z,57.54
2018-07-08T22:52:16.187Z,57.51
2018-07-08T22:54:45.828Z,57.71
2018-07-08T22:57:15.238Z,56.80
2018-07-08T23:01:03.218Z,57.36
2018-07-08T23:03:54.900Z,56.58
2018-07-08T23:06:24.324Z,56.33
2018-07-08T23:08:54.209Z,56.69
2018-07-08T23:11:24.659Z,57.28
2018-07-08T23:13:55.536Z,56.65
2018-07-08T23:16:25.798Z,57.13
2018-07-08T23:18:55.168Z,56.74
2018-07-08T23:21:24.536Z,57.51
2018-07-08T23:23:53.924Z,56.27
2018-07-08T23:26:23.327Z,56.81
2018-07-08T23:28:53.316Z,56.95
2018-07-08T23:31:22.702Z,57.93
2018-07-08T23:33:52.652Z,57.21
2018-07-08T23:36:22.000Z,57.02
2018-07-08T23:38:51.361Z,57.27
2018-07-08T23:41:20.746Z,56.90
2018-07-08T23:43:50.138Z,56.19
2018-07-08T23:46:19.464Z,56.94
2018-07-08T23:48:48.799Z,56.50
2018-07-08T23:51:18.222Z,57.70
2018-07-08T23:53:47.626Z,57.82
2018-07-08T23:56:16.972Z,57.83
2018-07-08T23:58:46.603Z,58.22
